Overseas Long Beach — WAAT — position and weather

sailwx.info

Track history (hours):
 
Tides and Currents Weather Stations Pressure Air Temp Water Temp Dewpoint Dewpoint Depression Visibility Wind Speed Wind Dir Waves Ship Positions

Overseas Long Beach

Owner: ASC Leasing II, Inc., Philadelphia, PA. More information available from US FCC via Universal Licensing System and Coast Guard Vessel Documentation Center.

Last reported at 2016-Jul-22 15:33 UTC. Time now 2016-Jul-23 13:08 UTC.
Position N 33°19' W 077°01'.

Length 181 m; draft 10.8 m.

Type: Tanker. MMSI: 367703000.

Date/timePositionNaut miles runAvg speedWind from/ knotsBaromVisibWave heightAir tempDewpointWater temp
2016-Jul-22 15:33N 33°19' W 077°01'31112.3
2016-Jul-21 14:08N 37°59' W 074°12'813.5
2016-Jul-21 13:32N 38°07' W 074°11'1313.6
2016-Jul-21 12:33N 38°20' W 074°09'1413.5
2016-Jul-21 11:30N 38°34' W 074°03'1313.6
2016-Jul-21 10:33N 38°46' W 074°00'1813.6
2016-Jul-21 09:13N 39°04' W 073°56'913.6
2016-Jul-21 08:33N 39°13' W 073°55'1313.3
2016-Jul-21 07:33N 39°26' W 073°53'1413.7
2016-Jul-21 06:33N 39°40' W 073°52'1514.5
2016-Jul-21 05:33N 39°54' W 073°50'1413.6
2016-Jul-21 04:32N 40°08' W 073°50'1712.2
2016-Jul-21 03:10N 40°25' W 073°53'3 5.1
2016-Jul-21 02:33N 40°28' W 073°53'1010.0
2016-Jul-21 01:32N 40°35' W 074°02'6 6.0
2016-Jul-21 00:33N 40°39' W 074°09'4 0.1
2016-Jul-18 22:27N 40°35' W 074°12'6 4.7
2016-Jul-18 21:14N 40°29' W 074°14'7 9.6
2016-Jul-18 20:33N 40°29' W 074°05'1010.1
2016-Jul-18 19:33N 40°26' W 073°53'3 1.4
2016-Jul-18 17:30N 40°24' W 073°55'0 0.1
2016-Jul-18 16:33N 40°24' W 073°55'0 0.0
2016-Jul-18 15:33N 40°24' W 073°55'0 0.0
2016-Jul-18 14:33N 40°24' W 073°55'0 0.0
2016-Jul-18 13:33N 40°24' W 073°55'0 0.1
2016-Jul-18 12:33N 40°24' W 073°55'0 0.0
2016-Jul-18 11:33N 40°24' W 073°55'0 0.0
2016-Jul-18 10:33N 40°24' W 073°55'0 0.0
2016-Jul-18 08:33N 40°24' W 073°55'0 0.0
2016-Jul-18 07:27N 40°24' W 073°55'0 0.0
2016-Jul-18 06:24N 40°24' W 073°55'0 0.0
2016-Jul-18 05:33N 40°24' W 073°55'0 0.0
2016-Jul-18 04:33N 40°24' W 073°55'0 0.0
2016-Jul-18 03:33N 40°24' W 073°55'0 0.0
2016-Jul-18 02:33N 40°24' W 073°55'0 0.0
2016-Jul-18 01:33N 40°24' W 073°55'0 0.1
2016-Jul-18 00:33N 40°24' W 073°55'0 0.0
2016-Jul-17 22:33N 40°24' W 073°55'10 7.7
2016-Jul-17 21:17N 40°19' W 073°45'1313.1
2016-Jul-17 20:19N 40°06' W 073°44'1115.0
2016-Jul-17 19:33N 39°55' W 073°42'1514.9
2016-Jul-17 18:33N 39°40' W 073°42'1111.1
2016-Jul-17 17:33N 39°28' W 073°41'1212.4
2016-Jul-17 16:33N 39°16' W 073°41'3014.1
2016-Jul-17 14:24N 38°46' W 073°45'3114.6
2016-Jul-17 12:17N 38°16' W 073°56'1314.5
2016-Jul-17 11:24N 38°04' W 074°00'1714.4
2016-Jul-17 10:12N 37°47' W 074°06'27915.5
2016-Jul-16 16:09N 33°34' W 076°31'  
2016-Jul-14 01:21N 30°07' W 080°56'6 7.5
2016-Jul-14 00:33N 30°03' W 080°51'22611.9
2016-Jul-13 05:33N 26°25' W 079°41'1716.6
2016-Jul-13 04:33N 26°09' W 079°43'1716.5
2016-Jul-13 03:33N 25°53' W 079°49'  
Track history (hours):
 
Tides and Currents Weather Stations Pressure Air Temp Water Temp Dewpoint Dewpoint Depression Visibility Wind Speed Wind Dir Waves Ship Positions

Overseas Long Beach

Owner: ASC Leasing II, Inc., Philadelphia, PA. More information available from US FCC via Universal Licensing System and Coast Guard Vessel Documentation Center.

Last reported at 2016-Jul-22 15:33 UTC. Time now 2016-Jul-23 13:08 UTC.
Position N 33°19' W 077°01'.

Length 181 m; draft 10.8 m.

Type: Tanker. MMSI: 367703000.

Date/timePositionNaut miles runAvg speedWind from/ knotsBaromVisibWave heightAir tempDewpointWater temp
2016-Jul-22 15:33N 33°19' W 077°01'31112.3
2016-Jul-21 14:08N 37°59' W 074°12'813.5
2016-Jul-21 13:32N 38°07' W 074°11'1313.6
2016-Jul-21 12:33N 38°20' W 074°09'1413.5
2016-Jul-21 11:30N 38°34' W 074°03'1313.6
2016-Jul-21 10:33N 38°46' W 074°00'1813.6
2016-Jul-21 09:13N 39°04' W 073°56'913.6
2016-Jul-21 08:33N 39°13' W 073°55'1313.3
2016-Jul-21 07:33N 39°26' W 073°53'1413.7
2016-Jul-21 06:33N 39°40' W 073°52'1514.5
2016-Jul-21 05:33N 39°54' W 073°50'1413.6
2016-Jul-21 04:32N 40°08' W 073°50'1712.2
2016-Jul-21 03:10N 40°25' W 073°53'3 5.1
2016-Jul-21 02:33N 40°28' W 073°53'1010.0
2016-Jul-21 01:32N 40°35' W 074°02'6 6.0
2016-Jul-21 00:33N 40°39' W 074°09'4 0.1
2016-Jul-18 22:27N 40°35' W 074°12'6 4.7
2016-Jul-18 21:14N 40°29' W 074°14'7 9.6
2016-Jul-18 20:33N 40°29' W 074°05'1010.1
2016-Jul-18 19:33N 40°26' W 073°53'3 1.4
2016-Jul-18 17:30N 40°24' W 073°55'0 0.1
2016-Jul-18 16:33N 40°24' W 073°55'0 0.0
2016-Jul-18 15:33N 40°24' W 073°55'0 0.0
2016-Jul-18 14:33N 40°24' W 073°55'0 0.0
2016-Jul-18 13:33N 40°24' W 073°55'0 0.1
2016-Jul-18 12:33N 40°24' W 073°55'0 0.0
2016-Jul-18 11:33N 40°24' W 073°55'0 0.0
2016-Jul-18 10:33N 40°24' W 073°55'0 0.0
2016-Jul-18 08:33N 40°24' W 073°55'0 0.0
2016-Jul-18 07:27N 40°24' W 073°55'0 0.0
2016-Jul-18 06:24N 40°24' W 073°55'0 0.0
2016-Jul-18 05:33N 40°24' W 073°55'0 0.0
2016-Jul-18 04:33N 40°24' W 073°55'0 0.0
2016-Jul-18 03:33N 40°24' W 073°55'0 0.0
2016-Jul-18 02:33N 40°24' W 073°55'0 0.0
2016-Jul-18 01:33N 40°24' W 073°55'0 0.1
2016-Jul-18 00:33N 40°24' W 073°55'0 0.0
2016-Jul-17 22:33N 40°24' W 073°55'10 7.7
2016-Jul-17 21:17N 40°19' W 073°45'1313.1
2016-Jul-17 20:19N 40°06' W 073°44'1115.0
2016-Jul-17 19:33N 39°55' W 073°42'1514.9
2016-Jul-17 18:33N 39°40' W 073°42'1111.1
2016-Jul-17 17:33N 39°28' W 073°41'1212.4
2016-Jul-17 16:33N 39°16' W 073°41'3014.1
2016-Jul-17 14:24N 38°46' W 073°45'3114.6
2016-Jul-17 12:17N 38°16' W 073°56'1314.5
2016-Jul-17 11:24N 38°04' W 074°00'1714.4
2016-Jul-17 10:12N 37°47' W 074°06'27915.5
2016-Jul-16 16:09N 33°34' W 076°31'  
2016-Jul-14 01:21N 30°07' W 080°56'6 7.5
2016-Jul-14 00:33N 30°03' W 080°51'22611.9
2016-Jul-13 05:33N 26°25' W 079°41'1716.6
2016-Jul-13 04:33N 26°09' W 079°43'1716.5
2016-Jul-13 03:33N 25°53' W 079°49'  

Dump ship's entire track history